CheckWX is a tool to help pilots better visualize weather data.  It is not intended as a substitute for an official pre-flight weather briefing.

04:06:31 UTC

KEKX METAR
Addington Field Airport
Elizabethtown, Kentucky, USA
Current

12 mins ago

KEKX 020355Z AUTO 00000KT 10SM CLR 04/03 A3011 RMK AO2 T00420027
Observed
Apr-2 @ 03:55 UTC
Visibility
10 SM
Flight Rules
VFR
Cloud Levels
  • Clear skies
Temperature
C / 39°F
Dewpoint
C / 37°F
Humidity
93%
Altimeter
30.11" Hg
Pressure
1019.62 hPa
Previous

32 mins ago

KEKX 020335Z AUTO 00000KT 10SM CLR 05/03 A3010 RMK AO2 T00450030
Observed
Apr-2 @ 03:35 UTC
Visibility
10 SM
Flight Rules
VFR
Cloud Levels
  • Clear skies
Temperature
C / 39°F
Dewpoint
C / 37°F
Humidity
93%
Altimeter
30.1" Hg
Pressure
1019.32 hPa
Previous

52 mins ago

KEKX 020315Z AUTO 00000KT 10SM CLR 05/03 A3010 RMK AO2 T00450027
Observed
Apr-2 @ 03:15 UTC
Visibility
10 SM
Flight Rules
VFR
Cloud Levels
  • Clear skies
Temperature
C / 39°F
Dewpoint
C / 37°F
Humidity
93%
Altimeter
30.1" Hg
Pressure
1019.32 hPa